sensor_id;sensor_type;location;lat;lon;timestamp;pressure;altitude;pressure_sealevel;temperature;humidity
70730;BME280;58315;53.336;55.932;2023-05-01T00:00:18;99870.03;;;19.80;35.50
70730;BME280;58315;53.336;55.932;2023-05-01T00:02:49;99878.84;;;19.73;35.74
70730;BME280;58315;53.336;55.932;2023-05-01T00:05:15;99885.88;;;19.74;35.58
70730;BME280;58315;53.336;55.932;2023-05-01T00:07:41;99884.03;;;19.75;35.80
70730;BME280;58315;53.336;55.932;2023-05-01T00:10:07;99882.56;;;19.72;35.70
70730;BME280;58315;53.336;55.932;2023-05-01T00:12:33;99886.25;;;19.71;35.96
70730;BME280;58315;53.336;55.932;2023-05-01T00:14:59;99887.53;;;19.75;35.73
70730;BME280;58315;53.336;55.932;2023-05-01T00:17:25;99891.25;;;19.74;35.65
70730;BME280;58315;53.336;55.932;2023-05-01T00:19:52;99883.75;;;19.70;35.81
70730;BME280;58315;53.336;55.932;2023-05-01T00:22:18;99888.94;;;19.71;35.98
70730;BME280;58315;53.336;55.932;2023-05-01T00:24:45;99891.88;;;19.77;35.82
70730;BME280;58315;53.336;55.932;2023-05-01T00:27:13;99891.66;;;19.78;35.69
70730;BME280;58315;53.336;55.932;2023-05-01T00:29:39;99888.44;;;19.83;35.93
70730;BME280;58315;53.336;55.932;2023-05-01T00:32:06;99883.91;;;19.83;35.46
70730;BME280;58315;53.336;55.932;2023-05-01T00:34:32;99886.38;;;19.85;35.59
70730;BME280;58315;53.336;55.932;2023-05-01T00:36:59;99879.94;;;19.79;35.59
70730;BME280;58315;53.336;55.932;2023-05-01T00:39:25;99891.28;;;19.81;35.62
70730;BME280;58315;53.336;55.932;2023-05-01T00:41:52;99884.47;;;19.79;35.68
70730;BME280;58315;53.336;55.932;2023-05-01T00:44:20;99883.38;;;19.73;35.89
70730;BME280;58315;53.336;55.932;2023-05-01T00:46:46;99885.22;;;19.72;35.95
70730;BME280;58315;53.336;55.932;2023-05-01T00:49:12;99882.19;;;19.75;35.92
70730;BME280;58315;53.336;55.932;2023-05-01T00:51:39;99875.41;;;19.80;35.68
70730;BME280;58315;53.336;55.932;2023-05-01T00:54:06;99883.06;;;19.83;35.71
70730;BME280;58315;53.336;55.932;2023-05-01T00:56:32;99882.56;;;19.72;35.81
70730;BME280;58315;53.336;55.932;2023-05-01T00:58:58;99873.22;;;19.68;35.95
70730;BME280;58315;53.336;55.932;2023-05-01T01:01:24;99881.66;;;19.65;35.85
70730;BME280;58315;53.336;55.932;2023-05-01T01:03:51;99887.00;;;19.65;36.13
70730;BME280;58315;53.336;55.932;2023-05-01T01:11:39;99892.25;;;19.73;35.99
70730;BME280;58315;53.336;55.932;2023-05-01T01:14:14;99886.81;;;19.67;36.25
70730;BME280;58315;53.336;55.932;2023-05-01T01:16:44;99888.50;;;19.53;36.50
70730;BME280;58315;53.336;55.932;2023-05-01T01:22:11;99878.69;;;19.60;36.46
70730;BME280;58315;53.336;55.932;2023-05-01T01:34:03;99898.44;;;19.74;36.49
70730;BME280;58315;53.336;55.932;2023-05-01T01:41:48;99905.28;;;19.77;36.39
70730;BME280;58315;53.336;55.932;2023-05-01T01:44:21;99906.63;;;19.87;36.46
70730;BME280;58315;53.336;55.932;2023-05-01T01:46:51;99917.59;;;19.92;36.54
70730;BME280;58315;53.336;55.932;2023-05-01T01:49:22;99915.25;;;20.04;36.25
70730;BME280;58315;53.336;55.932;2023-05-01T01:51:49;99909.81;;;20.19;36.01
70730;BME280;58315;53.336;55.932;2023-05-01T01:54:22;99912.69;;;20.17;36.07
70730;BME280;58315;53.336;55.932;2023-05-01T01:56:52;99907.59;;;20.22;36.25
70730;BME280;58315;53.336;55.932;2023-05-01T01:59:20;99911.16;;;20.30;36.18
70730;BME280;58315;53.336;55.932;2023-05-01T02:01:49;99908.25;;;20.31;36.04
70730;BME280;58315;53.336;55.932;2023-05-01T02:04:16;99906.84;;;20.35;36.24
70730;BME280;58315;53.336;55.932;2023-05-01T02:06:44;99913.75;;;20.44;36.04
70730;BME280;58315;53.336;55.932;2023-05-01T02:09:15;99908.06;;;20.54;35.80
70730;BME280;58315;53.336;55.932;2023-05-01T02:11:44;99914.94;;;20.63;35.84
70730;BME280;58315;53.336;55.932;2023-05-01T02:14:13;99915.63;;;20.72;35.89
70730;BME280;58315;53.336;55.932;2023-05-01T02:16:40;99919.63;;;20.83;35.95
70730;BME280;58315;53.336;55.932;2023-05-01T02:19:07;99916.34;;;20.87;35.95
70730;BME280;58315;53.336;55.932;2023-05-01T02:21:35;99919.94;;;21.01;35.72
70730;BME280;58315;53.336;55.932;2023-05-01T02:24:02;99924.91;;;21.04;35.70
70730;BME280;58315;53.336;55.932;2023-05-01T02:26:30;99922.28;;;21.11;35.68
70730;BME280;58315;53.336;55.932;2023-05-01T02:29:00;99925.88;;;21.25;35.51
70730;BME280;58315;53.336;55.932;2023-05-01T02:31:26;99918.19;;;21.22;35.69
70730;BME280;58315;53.336;55.932;2023-05-01T02:33:52;99922.75;;;21.28;35.80
70730;BME280;58315;53.336;55.932;2023-05-01T02:36:18;99925.94;;;21.38;35.60
70730;BME280;58315;53.336;55.932;2023-05-01T02:38:44;99922.84;;;21.41;35.77
70730;BME280;58315;53.336;55.932;2023-05-01T02:41:13;99917.50;;;21.48;35.52
70730;BME280;58315;53.336;55.932;2023-05-01T02:43:41;99925.59;;;21.61;35.69
70730;BME280;58315;53.336;55.932;2023-05-01T02:46:09;99911.16;;;21.69;35.35
70730;BME280;58315;53.336;55.932;2023-05-01T02:48:36;99912.81;;;21.83;35.35
70730;BME280;58315;53.336;55.932;2023-05-01T02:51:03;99917.00;;;21.92;35.13
70730;BME280;58315;53.336;55.932;2023-05-01T02:53:31;99914.94;;;22.01;35.08
70730;BME280;58315;53.336;55.932;2023-05-01T02:56:04;99922.84;;;22.15;35.10
70730;BME280;58315;53.336;55.932;2023-05-01T02:58:33;99923.25;;;22.19;34.77
70730;BME280;58315;53.336;55.932;2023-05-01T03:00:59;99925.34;;;22.37;34.45
70730;BME280;58315;53.336;55.932;2023-05-01T03:03:25;99931.78;;;22.49;34.24
70730;BME280;58315;53.336;55.932;2023-05-01T03:05:52;99927.63;;;22.40;34.27
70730;BME280;58315;53.336;55.932;2023-05-01T03:08:18;99933.44;;;22.50;34.40
70730;BME280;58315;53.336;55.932;2023-05-01T03:10:45;99931.97;;;22.61;34.13
70730;BME280;58315;53.336;55.932;2023-05-01T03:13:11;99924.69;;;22.81;33.76
70730;BME280;58315;53.336;55.932;2023-05-01T03:15:37;99942.31;;;22.97;33.83
70730;BME280;58315;53.336;55.932;2023-05-01T03:18:03;99929.25;;;23.07;33.64
70730;BME280;58315;53.336;55.932;2023-05-01T03:20:30;99942.16;;;23.44;33.05
70730;BME280;58315;53.336;55.932;2023-05-01T03:22:56;99933.88;;;24.22;32.25
70730;BME280;58315;53.336;55.932;2023-05-01T03:25:22;99937.03;;;24.94;31.02
70730;BME280;58315;53.336;55.932;2023-05-01T03:27:48;99932.72;;;25.78;30.74
70730;BME280;58315;53.336;55.932;2023-05-01T03:30:15;99938.72;;;26.64;29.36
70730;BME280;58315;53.336;55.932;2023-05-01T03:32:42;99933.06;;;27.24;28.71
70730;BME280;58315;53.336;55.932;2023-05-01T03:35:16;99931.09;;;28.22;28.03
70730;BME280;58315;53.336;55.932;2023-05-01T03:37:43;99933.19;;;28.66;26.84
70730;BME280;58315;53.336;55.932;2023-05-01T03:40:12;99945.88;;;29.33;26.37
70730;BME280;58315;53.336;55.932;2023-05-01T03:43:01;99946.25;;;29.90;26.22
70730;BME280;58315;53.336;55.932;2023-05-01T03:45:28;99949.44;;;30.36;24.80
70730;BME280;58315;53.336;55.932;2023-05-01T03:47:54;99943.31;;;30.56;24.73
70730;BME280;58315;53.336;55.932;2023-05-01T03:50:20;99948.44;;;30.85;24.23
70730;BME280;58315;53.336;55.932;2023-05-01T03:52:48;99948.53;;;31.00;23.81
70730;BME280;58315;53.336;55.932;2023-05-01T03:55:14;99950.56;;;31.20;23.57
70730;BME280;58315;53.336;55.932;2023-05-01T03:57:42;99949.16;;;31.80;23.47
70730;BME280;58315;53.336;55.932;2023-05-01T04:00:09;99946.78;;;32.04;23.19
70730;BME280;58315;53.336;55.932;2023-05-01T04:02:43;99953.06;;;32.20;23.11
70730;BME280;58315;53.336;55.932;2023-05-01T04:05:13;99955.53;;;32.27;22.10
70730;BME280;58315;53.336;55.932;2023-05-01T04:07:43;99953.09;;;32.46;23.21
70730;BME280;58315;53.336;55.932;2023-05-01T04:10:10;99953.34;;;33.00;22.46
70730;BME280;58315;53.336;55.932;2023-05-01T04:12:40;99956.72;;;33.57;21.78
70730;BME280;58315;53.336;55.932;2023-05-01T04:15:06;99961.31;;;33.67;22.18
70730;BME280;58315;53.336;55.932;2023-05-01T04:17:34;99948.44;;;34.12;21.85
70730;BME280;58315;53.336;55.932;2023-05-01T04:20:02;99946.13;;;34.63;21.33
70730;BME280;58315;53.336;55.932;2023-05-01T04:22:32;99957.00;;;34.97;21.04
70730;BME280;58315;53.336;55.932;2023-05-01T04:24:58;99950.88;;;35.11;20.31
70730;BME280;58315;53.336;55.932;2023-05-01T04:27:24;99953.34;;;35.31;20.57
70730;BME280;58315;53.336;55.932;2023-05-01T04:29:50;99950.44;;;35.22;20.21
70730;BME280;58315;53.336;55.932;2023-05-01T04:32:17;99944.41;;;35.44;20.61
70730;BME280;58315;53.336;55.932;2023-05-01T04:34:43;99942.16;;;35.46;20.29
70730;BME280;58315;53.336;55.932;2023-05-01T04:37:09;99952.06;;;35.47;19.73
70730;BME280;58315;53.336;55.932;2023-05-01T04:39:36;99952.81;;;35.53;19.86
70730;BME280;58315;53.336;55.932;2023-05-01T04:42:03;99953.00;;;35.62;19.86
70730;BME280;58315;53.336;55.932;2023-05-01T04:44:29;99950.19;;;36.05;19.89
70730;BME280;58315;53.336;55.932;2023-05-01T04:46:56;99954.56;;;36.57;20.12
70730;BME280;58315;53.336;55.932;2023-05-01T04:49:22;99959.72;;;36.91;19.17
70730;BME280;58315;53.336;55.932;2023-05-01T04:51:48;99959.56;;;37.02;19.50
70730;BME280;58315;53.336;55.932;2023-05-01T04:54:16;99964.44;;;37.32;18.65
70730;BME280;58315;53.336;55.932;2023-05-01T04:56:42;99958.00;;;37.64;18.67
70730;BME280;58315;53.336;55.932;2023-05-01T04:59:09;99961.72;;;37.82;18.23
70730;BME280;58315;53.336;55.932;2023-05-01T05:01:35;99960.72;;;37.78;18.32
70730;BME280;58315;53.336;55.932;2023-05-01T05:04:02;99956.25;;;38.27;18.16
70730;BME280;58315;53.336;55.932;2023-05-01T05:06:29;99955.59;;;38.44;17.88
70730;BME280;58315;53.336;55.932;2023-05-01T05:08:56;99949.81;;;38.54;17.74
70730;BME280;58315;53.336;55.932;2023-05-01T05:11:22;99945.75;;;38.52;17.74
70730;BME280;58315;53.336;55.932;2023-05-01T05:13:51;99948.47;;;38.74;17.39
70730;BME280;58315;53.336;55.932;2023-05-01T05:16:17;99949.66;;;38.82;17.26
70730;BME280;58315;53.336;55.932;2023-05-01T05:18:43;99943.13;;;39.09;17.81
70730;BME280;58315;53.336;55.932;2023-05-01T05:21:10;99944.66;;;39.41;17.19
70730;BME280;58315;53.336;55.932;2023-05-01T05:23:38;99942.09;;;39.53;16.87
70730;BME280;58315;53.336;55.932;2023-05-01T05:26:08;99938.91;;;39.20;16.67
70730;BME280;58315;53.336;55.932;2023-05-01T05:28:34;99948.75;;;39.44;17.06
70730;BME280;58315;53.336;55.932;2023-05-01T05:31:00;99956.28;;;39.69;16.91
70730;BME280;58315;53.336;55.932;2023-05-01T05:33:26;99942.44;;;39.61;17.11
70730;BME280;58315;53.336;55.932;2023-05-01T05:35:53;99946.03;;;39.70;16.28
70730;BME280;58315;53.336;55.932;2023-05-01T05:38:23;99943.06;;;39.49;16.83
70730;BME280;58315;53.336;55.932;2023-05-01T05:40:52;99941.19;;;39.75;16.57
70730;BME280;58315;53.336;55.932;2023-05-01T05:43:23;99942.13;;;39.71;16.63
70730;BME280;58315;53.336;55.932;2023-05-01T05:45:49;99943.75;;;40.07;16.22
70730;BME280;58315;53.336;55.932;2023-05-01T05:48:15;99928.31;;;39.97;16.33
70730;BME280;58315;53.336;55.932;2023-05-01T05:50:42;99940.69;;;40.17;16.35
70730;BME280;58315;53.336;55.932;2023-05-01T05:53:08;99941.13;;;40.36;16.16
70730;BME280;58315;53.336;55.932;2023-05-01T05:55:35;99945.22;;;40.21;16.11
70730;BME280;58315;53.336;55.932;2023-05-01T05:58:03;99930.91;;;39.85;15.78
70730;BME280;58315;53.336;55.932;2023-05-01T06:00:30;99934.78;;;39.66;16.19
70730;BME280;58315;53.336;55.932;2023-05-01T06:03:02;99938.72;;;40.17;16.25
70730;BME280;58315;53.336;55.932;2023-05-01T06:05:29;99935.59;;;40.36;16.09
70730;BME280;58315;53.336;55.932;2023-05-01T06:07:56;99934.19;;;39.87;15.88
70730;BME280;58315;53.336;55.932;2023-05-01T06:10:22;99932.25;;;39.21;16.41
70730;BME280;58315;53.336;55.932;2023-05-01T06:12:48;99934.81;;;38.69;16.61
70730;BME280;58315;53.336;55.932;2023-05-01T06:15:15;99925.28;;;37.85;16.93
70730;BME280;58315;53.336;55.932;2023-05-01T06:17:46;99924.66;;;37.38;16.98
70730;BME280;58315;53.336;55.932;2023-05-01T06:20:12;99921.97;;;36.92;17.60
70730;BME280;58315;53.336;55.932;2023-05-01T06:22:40;99921.41;;;36.16;18.00
70730;BME280;58315;53.336;55.932;2023-05-01T06:25:15;99930.22;;;35.37;18.17
70730;BME280;58315;53.336;55.932;2023-05-01T06:27:41;99930.34;;;34.45;19.08
70730;BME280;58315;53.336;55.932;2023-05-01T06:30:08;99930.25;;;33.87;19.38
70730;BME280;58315;53.336;55.932;2023-05-01T06:32:36;99922.53;;;33.34;19.89
70730;BME280;58315;53.336;55.932;2023-05-01T06:35:03;99921.59;;;32.94;20.81
70730;BME280;58315;53.336;55.932;2023-05-01T06:37:31;99915.88;;;32.80;20.60
70730;BME280;58315;53.336;55.932;2023-05-01T06:39:57;99920.78;;;32.78;20.51
70730;BME280;58315;53.336;55.932;2023-05-01T06:42:23;99916.19;;;32.43;20.75
70730;BME280;58315;53.336;55.932;2023-05-01T06:44:49;99916.44;;;32.31;21.25
70730;BME280;58315;53.336;55.932;2023-05-01T06:47:15;99915.06;;;32.24;21.11
70730;BME280;58315;53.336;55.932;2023-05-01T06:49:41;99910.69;;;32.02;21.17
70730;BME280;58315;53.336;55.932;2023-05-01T06:52:08;99908.50;;;31.94;21.60
70730;BME280;58315;53.336;55.932;2023-05-01T06:54:34;99909.53;;;31.73;21.70
70730;BME280;58315;53.336;55.932;2023-05-01T06:57:01;99911.72;;;31.70;21.73
70730;BME280;58315;53.336;55.932;2023-05-01T06:59:27;99896.44;;;31.80;21.74
70730;BME280;58315;53.336;55.932;2023-05-01T07:01:53;99901.41;;;31.93;21.33
70730;BME280;58315;53.336;55.932;2023-05-01T07:04:19;99901.69;;;31.97;21.25
70730;BME280;58315;53.336;55.932;2023-05-01T07:06:45;99898.66;;;31.88;21.52
70730;BME280;58315;53.336;55.932;2023-05-01T07:09:12;99897.50;;;31.74;21.75
70730;BME280;58315;53.336;55.932;2023-05-01T07:11:38;99893.72;;;31.75;21.17
70730;BME280;58315;53.336;55.932;2023-05-01T07:14:04;99904.31;;;31.66;21.26
70730;BME280;58315;53.336;55.932;2023-05-01T07:16:31;99899.97;;;31.65;20.91
70730;BME280;58315;53.336;55.932;2023-05-01T07:18:57;99887.38;;;31.49;21.05
70730;BME280;58315;53.336;55.932;2023-05-01T07:21:23;99902.84;;;31.28;21.51
70730;BME280;58315;53.336;55.932;2023-05-01T07:23:49;99885.97;;;31.41;21.48
70730;BME280;58315;53.336;55.932;2023-05-01T07:26:15;99898.59;;;31.52;21.68
70730;BME280;58315;53.336;55.932;2023-05-01T07:28:41;99887.41;;;31.64;21.73
70730;BME280;58315;53.336;55.932;2023-05-01T07:31:10;99901.88;;;31.59;21.26
70730;BME280;58315;53.336;55.932;2023-05-01T07:33:36;99903.44;;;31.40;21.66
70730;BME280;58315;53.336;55.932;2023-05-01T07:36:03;99890.66;;;31.61;21.13
70730;BME280;58315;53.336;55.932;2023-05-01T07:38:29;99890.94;;;31.49;21.66
70730;BME280;58315;53.336;55.932;2023-05-01T07:40:55;99891.41;;;31.36;21.60
70730;BME280;58315;53.336;55.932;2023-05-01T07:43:22;99885.72;;;31.48;21.74
70730;BME280;58315;53.336;55.932;2023-05-01T07:46:06;99887.69;;;31.83;21.67
70730;BME280;58315;53.336;55.932;2023-05-01T07:48:32;99883.94;;;31.89;21.90
70730;BME280;58315;53.336;55.932;2023-05-01T07:51:01;99890.22;;;32.00;21.53
70730;BME280;58315;53.336;55.932;2023-05-01T07:53:29;99883.63;;;31.96;21.41
70730;BME280;58315;53.336;55.932;2023-05-01T07:56:04;99886.09;;;31.92;21.54
70730;BME280;58315;53.336;55.932;2023-05-01T07:58:31;99894.56;;;31.90;21.86
70730;BME280;58315;53.336;55.932;2023-05-01T08:00:58;99889.94;;;31.96;21.46
70730;BME280;58315;53.336;55.932;2023-05-01T08:03:23;99883.38;;;31.87;22.02
70730;BME280;58315;53.336;55.932;2023-05-01T08:05:50;99882.25;;;31.78;21.58
70730;BME280;58315;53.336;55.932;2023-05-01T08:08:16;99882.78;;;31.75;22.17
70730;BME280;58315;53.336;55.932;2023-05-01T08:10:46;99892.66;;;31.86;22.24
70730;BME280;58315;53.336;55.932;2023-05-01T08:13:12;99895.97;;;32.03;21.99
70730;BME280;58315;53.336;55.932;2023-05-01T08:15:38;99876.28;;;32.11;21.16
70730;BME280;58315;53.336;55.932;2023-05-01T08:18:08;99872.97;;;32.09;21.60
70730;BME280;58315;53.336;55.932;2023-05-01T08:20:37;99878.75;;;31.92;21.51
70730;BME280;58315;53.336;55.932;2023-05-01T08:23:03;99868.00;;;31.65;21.15
70730;BME280;58315;53.336;55.932;2023-05-01T08:25:29;99872.41;;;31.72;21.72
70730;BME280;58315;53.336;55.932;2023-05-01T08:27:59;99878.41;;;31.79;21.15
70730;BME280;58315;53.336;55.932;2023-05-01T08:30:25;99883.88;;;31.79;20.88
70730;BME280;58315;53.336;55.932;2023-05-01T08:32:51;99876.28;;;31.96;21.19
70730;BME280;58315;53.336;55.932;2023-05-01T08:35:17;99883.34;;;31.82;21.44
70730;BME280;58315;53.336;55.932;2023-05-01T08:37:43;99879.50;;;31.73;21.29
70730;BME280;58315;53.336;55.932;2023-05-01T08:40:10;99873.78;;;31.74;21.34
70730;BME280;58315;53.336;55.932;2023-05-01T08:42:36;99889.38;;;31.99;21.38
70730;BME280;58315;53.336;55.932;2023-05-01T08:45:06;99872.19;;;31.93;21.10
70730;BME280;58315;53.336;55.932;2023-05-01T08:47:36;99870.22;;;31.84;21.04
70730;BME280;58315;53.336;55.932;2023-05-01T08:50:08;99868.88;;;31.81;21.51
70730;BME280;58315;53.336;55.932;2023-05-01T08:52:39;99860.94;;;31.75;21.18
70730;BME280;58315;53.336;55.932;2023-05-01T08:55:13;99871.03;;;31.74;21.62
70730;BME280;58315;53.336;55.932;2023-05-01T08:57:48;99863.38;;;31.76;21.33
70730;BME280;58315;53.336;55.932;2023-05-01T09:00:19;99862.84;;;31.84;21.29
70730;BME280;58315;53.336;55.932;2023-05-01T09:02:47;99862.88;;;31.89;21.76
70730;BME280;58315;53.336;55.932;2023-05-01T09:05:18;99858.78;;;31.97;21.20
70730;BME280;58315;53.336;55.932;2023-05-01T09:07:46;99863.16;;;31.93;21.75
70730;BME280;58315;53.336;55.932;2023-05-01T09:10:14;99867.78;;;31.87;21.68
70730;BME280;58315;53.336;55.932;2023-05-01T09:12:41;99857.44;;;32.00;21.72
70730;BME280;58315;53.336;55.932;2023-05-01T09:15:11;99851.91;;;31.69;21.76
70730;BME280;58315;53.336;55.932;2023-05-01T09:17:37;99851.91;;;31.79;21.36
70730;BME280;58315;53.336;55.932;2023-05-01T09:20:05;99846.22;;;31.91;21.22
70730;BME280;58315;53.336;55.932;2023-05-01T09:22:33;99854.41;;;31.91;21.36
70730;BME280;58315;53.336;55.932;2023-05-01T09:25:00;99851.09;;;31.68;21.26
70730;BME280;58315;53.336;55.932;2023-05-01T09:27:32;99847.50;;;31.63;21.85
70730;BME280;58315;53.336;55.932;2023-05-01T09:29:58;99845.03;;;31.51;21.52
70730;BME280;58315;53.336;55.932;2023-05-01T09:32:25;99846.69;;;31.47;21.86
70730;BME280;58315;53.336;55.932;2023-05-01T09:35:11;99833.84;;;31.48;21.99
70730;BME280;58315;53.336;55.932;2023-05-01T09:37:39;99833.84;;;31.48;21.80
70730;BME280;58315;53.336;55.932;2023-05-01T09:40:10;99830.56;;;31.45;22.23
70730;BME280;58315;53.336;55.932;2023-05-01T09:42:50;99838.53;;;31.67;21.44
70730;BME280;58315;53.336;55.932;2023-05-01T09:45:17;99841.78;;;31.64;21.24
70730;BME280;58315;53.336;55.932;2023-05-01T09:47:45;99834.66;;;31.48;21.29
70730;BME280;58315;53.336;55.932;2023-05-01T09:50:28;99837.34;;;31.33;21.45
70730;BME280;58315;53.336;55.932;2023-05-01T09:52:55;99832.69;;;31.23;22.01
70730;BME280;58315;53.336;55.932;2023-05-01T09:55:21;99836.81;;;31.31;21.85
70730;BME280;58315;53.336;55.932;2023-05-01T09:57:50;99831.63;;;31.44;21.89
70730;BME280;58315;53.336;55.932;2023-05-01T10:00:17;99833.81;;;31.32;22.04
70730;BME280;58315;53.336;55.932;2023-05-01T10:02:46;99822.06;;;31.32;21.85
70730;BME280;58315;53.336;55.932;2023-05-01T10:05:13;99830.25;;;31.37;21.72
70730;BME280;58315;53.336;55.932;2023-05-01T10:10:22;99830.03;;;31.54;21.67
70730;BME280;58315;53.336;55.932;2023-05-01T10:12:48;99839.59;;;31.56;22.04
70730;BME280;58315;53.336;55.932;2023-05-01T10:15:15;99839.88;;;31.50;21.71
70730;BME280;58315;53.336;55.932;2023-05-01T10:17:43;99828.91;;;31.44;21.73
70730;BME280;58315;53.336;55.932;2023-05-01T10:20:10;99836.31;;;31.54;21.69
70730;BME280;58315;53.336;55.932;2023-05-01T10:22:38;99832.50;;;31.60;22.09
70730;BME280;58315;53.336;55.932;2023-05-01T10:25:08;99825.66;;;31.63;21.45
70730;BME280;58315;53.336;55.932;2023-05-01T10:27:40;99834.13;;;31.61;21.86
70730;BME280;58315;53.336;55.932;2023-05-01T10:30:08;99820.50;;;31.56;21.78
70730;BME280;58315;53.336;55.932;2023-05-01T10:32:36;99823.22;;;31.61;22.19
70730;BME280;58315;53.336;55.932;2023-05-01T10:35:07;99821.59;;;31.70;22.08
70730;BME280;58315;53.336;55.932;2023-05-01T10:37:46;99823.50;;;31.65;21.70
70730;BME280;58315;53.336;55.932;2023-05-01T10:40:44;99814.50;;;31.80;22.22
70730;BME280;58315;53.336;55.932;2023-05-01T10:43:22;99809.03;;;31.64;22.01
70730;BME280;58315;53.336;55.932;2023-05-01T10:51:30;99805.19;;;31.60;21.60
70730;BME280;58315;53.336;55.932;2023-05-01T10:56:42;99812.31;;;31.72;21.43
70730;BME280;58315;53.336;55.932;2023-05-01T10:59:09;99815.28;;;31.70;21.12
70730;BME280;58315;53.336;55.932;2023-05-01T11:01:46;99815.31;;;31.75;21.10
70730;BME280;58315;53.336;55.932;2023-05-01T11:09:36;99816.06;;;31.40;21.24
70730;BME280;58315;53.336;55.932;2023-05-01T11:12:07;99810.38;;;31.41;20.83
70730;BME280;58315;53.336;55.932;2023-05-01T11:17:43;99810.91;;;31.59;20.82
70730;BME280;58315;53.336;55.932;2023-05-01T11:23:01;99805.69;;;31.32;20.43
70730;BME280;58315;53.336;55.932;2023-05-01T11:25:28;99810.88;;;31.33;20.52
70730;BME280;58315;53.336;55.932;2023-05-01T11:28:00;99800.22;;;31.37;19.74
70730;BME280;58315;53.336;55.932;2023-05-01T11:30:39;99807.66;;;31.57;19.65
70730;BME280;58315;53.336;55.932;2023-05-01T11:33:06;99809.25;;;31.48;20.35
70730;BME280;58315;53.336;55.932;2023-05-01T11:35:32;99804.91;;;31.41;20.29
70730;BME280;58315;53.336;55.932;2023-05-01T11:37:58;99809.00;;;31.34;19.99
70730;BME280;58315;53.336;55.932;2023-05-01T11:40:26;99814.97;;;31.41;19.80
70730;BME280;58315;53.336;55.932;2023-05-01T11:43:06;99806.78;;;31.41;19.62
70730;BME280;58315;53.336;55.932;2023-05-01T11:45:33;99805.47;;;31.49;20.03
70730;BME280;58315;53.336;55.932;2023-05-01T11:48:00;99805.69;;;31.37;20.42
70730;BME280;58315;53.336;55.932;2023-05-01T11:50:35;99810.66;;;31.50;20.46
70730;BME280;58315;53.336;55.932;2023-05-01T11:53:02;99808.16;;;31.43;20.44
70730;BME280;58315;53.336;55.932;2023-05-01T11:55:33;99802.72;;;31.38;20.38
70730;BME280;58315;53.336;55.932;2023-05-01T11:58:00;99799.09;;;31.28;20.49
70730;BME280;58315;53.336;55.932;2023-05-01T12:00:35;99804.34;;;31.34;20.38
70730;BME280;58315;53.336;55.932;2023-05-01T12:03:05;99794.78;;;31.37;20.10
70730;BME280;58315;53.336;55.932;2023-05-01T12:05:32;99800.78;;;31.44;20.25
70730;BME280;58315;53.336;55.932;2023-05-01T12:08:10;99803.28;;;31.51;19.69
70730;BME280;58315;53.336;55.932;2023-05-01T12:10:38;99796.34;;;31.22;20.24
70730;BME280;58315;53.336;55.932;2023-05-01T12:13:06;99809.72;;;31.19;19.70
70730;BME280;58315;53.336;55.932;2023-05-01T12:15:37;99801.81;;;31.22;20.21
70730;BME280;58315;53.336;55.932;2023-05-01T12:18:04;99790.91;;;31.22;20.13
70730;BME280;58315;53.336;55.932;2023-05-01T12:20:41;99801.28;;;31.26;19.91
70730;BME280;58315;53.336;55.932;2023-05-01T12:23:10;99789.53;;;31.20;20.10
70730;BME280;58315;53.336;55.932;2023-05-01T12:25:37;99789.59;;;31.35;20.06
70730;BME280;58315;53.336;55.932;2023-05-01T12:28:09;99786.59;;;31.32;20.04
70730;BME280;58315;53.336;55.932;2023-05-01T12:30:37;99796.34;;;31.22;20.23
70730;BME280;58315;53.336;55.932;2023-05-01T12:35:35;99779.50;;;31.31;20.42
70730;BME280;58315;53.336;55.932;2023-05-01T12:38:09;99779.25;;;31.37;19.71
70730;BME280;58315;53.336;55.932;2023-05-01T12:40:38;99773.44;;;31.29;20.16
70730;BME280;58315;53.336;55.932;2023-05-01T12:43:05;99781.34;;;31.20;19.62
70730;BME280;58315;53.336;55.932;2023-05-01T12:45:38;99779.16;;;31.22;20.06
70730;BME280;58315;53.336;55.932;2023-05-01T12:48:11;99773.16;;;31.20;20.25
70730;BME280;58315;53.336;55.932;2023-05-01T12:50:41;99771.78;;;31.12;20.12
70730;BME280;58315;53.336;55.932;2023-05-01T12:53:08;99766.91;;;31.19;19.54
70730;BME280;58315;53.336;55.932;2023-05-01T12:55:46;99768.00;;;31.23;20.17
70730;BME280;58315;53.336;55.932;2023-05-01T12:58:12;99779.69;;;31.14;20.39
70730;BME280;58315;53.336;55.932;2023-05-01T13:00:52;99775.06;;;31.14;19.74
70730;BME280;58315;53.336;55.932;2023-05-01T13:03:24;99772.59;;;31.13;20.17
70730;BME280;58315;53.336;55.932;2023-05-01T13:05:51;99763.03;;;31.05;20.11
70730;BME280;58315;53.336;55.932;2023-05-01T13:08:29;99763.59;;;31.12;20.52
70730;BME280;58315;53.336;55.932;2023-05-01T13:10:57;99765.75;;;31.00;20.24
70730;BME280;58315;53.336;55.932;2023-05-01T13:13:29;99759.50;;;31.05;20.06
70730;BME280;58315;53.336;55.932;2023-05-01T13:16:11;99772.84;;;31.11;20.04
70730;BME280;58315;53.336;55.932;2023-05-01T13:18:51;99767.94;;;31.03;19.73
70730;BME280;58315;53.336;55.932;2023-05-01T13:21:19;99762.19;;;30.99;20.17
70730;BME280;58315;53.336;55.932;2023-05-01T13:23:59;99764.91;;;30.99;19.01
70730;BME280;58315;53.336;55.932;2023-05-01T13:26:30;99764.09;;;30.94;19.52
70730;BME280;58315;53.336;55.932;2023-05-01T13:28:58;99765.72;;;30.95;19.25
70730;BME280;58315;53.336;55.932;2023-05-01T13:31:26;99763.53;;;30.87;19.47
70730;BME280;58315;53.336;55.932;2023-05-01T13:33:53;99766.25;;;30.92;19.16
70730;BME280;58315;53.336;55.932;2023-05-01T13:36:20;99766.03;;;30.98;18.91
70730;BME280;58315;53.336;55.932;2023-05-01T13:38:51;99765.78;;;31.15;18.83
70730;BME280;58315;53.336;55.932;2023-05-01T13:41:21;99757.31;;;31.07;19.07
70730;BME280;58315;53.336;55.932;2023-05-01T13:43:48;99757.56;;;31.00;19.07